createdAt,value
2023-01-20T00:01:05.396Z,16.15
2023-01-20T00:03:32.781Z,15.68
2023-01-20T00:06:00.027Z,17.08
2023-01-20T00:08:27.481Z,16.02
2023-01-20T00:10:55.103Z,17.35
2023-01-20T00:13:22.655Z,16.88
2023-01-20T00:15:49.880Z,16.55
2023-01-20T00:18:17.156Z,17.52
2023-01-20T00:20:44.474Z,17.73
2023-01-20T00:23:11.768Z,20.20
2023-01-20T00:25:39.027Z,17.95
2023-01-20T00:28:06.289Z,17.63
2023-01-20T00:30:34.334Z,18.88
2023-01-20T00:33:01.635Z,18.45
2023-01-20T00:35:28.794Z,18.75
2023-01-20T00:37:55.994Z,18.00
2023-01-20T00:40:23.168Z,17.77
2023-01-20T00:42:50.571Z,18.60
2023-01-20T00:45:18.052Z,18.80
2023-01-20T00:47:45.381Z,16.67
2023-01-20T00:50:13.027Z,17.92
2023-01-20T00:52:40.374Z,19.50
2023-01-20T00:55:07.973Z,17.80
2023-01-20T00:57:35.190Z,18.35
2023-01-20T01:00:02.517Z,18.77
2023-01-20T01:02:29.890Z,17.13
2023-01-20T01:04:57.197Z,18.42
2023-01-20T01:07:24.394Z,19.55
2023-01-20T01:09:51.723Z,18.63
2023-01-20T01:12:19.059Z,17.33
2023-01-20T01:14:46.308Z,16.35
2023-01-20T01:17:13.551Z,17.67
2023-01-20T01:19:40.904Z,16.85
2023-01-20T01:22:08.259Z,17.13
2023-01-20T01:24:35.516Z,17.73
2023-01-20T01:27:04.584Z,17.45
2023-01-20T01:29:31.758Z,17.27
2023-01-20T01:31:59.182Z,17.63
2023-01-20T01:34:26.921Z,18.38
2023-01-20T01:36:54.206Z,19.65
2023-01-20T01:39:21.515Z,19.05
2023-01-20T01:41:49.080Z,17.70
2023-01-20T01:44:16.865Z,17.27
2023-01-20T01:46:44.473Z,16.95
2023-01-20T01:49:29.235Z,17.33
2023-01-20T01:54:32.975Z,16.75
2023-01-20T01:57:00.977Z,16.23
2023-01-20T01:59:28.461Z,15.80
2023-01-20T02:01:56.251Z,16.33
2023-01-20T02:04:26.308Z,16.73
2023-01-20T02:07:15.784Z,16.17
2023-01-20T02:09:43.055Z,16.00
2023-01-20T02:12:15.729Z,16.98
2023-01-20T02:14:47.550Z,17.02
2023-01-20T02:17:30.161Z,18.30
2023-01-20T02:19:58.497Z,16.85
2023-01-20T02:22:44.744Z,16.75
2023-01-20T02:25:31.123Z,17.30
2023-01-20T02:28:21.781Z,16.15
2023-01-20T02:31:19.968Z,16.13
2023-01-20T02:34:21.081Z,16.05
2023-01-20T02:36:56.735Z,16.50
2023-01-20T02:39:29.077Z,16.17
2023-01-20T02:41:57.420Z,17.23
2023-01-20T02:44:25.850Z,16.77
2023-01-20T02:47:02.775Z,17.20
2023-01-20T02:49:36.973Z,16.17
2023-01-20T02:52:12.453Z,17.02
2023-01-20T02:54:44.931Z,16.60
2023-01-20T02:57:17.692Z,17.05
2023-01-20T02:59:50.846Z,16.23
2023-01-20T03:02:22.941Z,15.65
2023-01-20T03:04:57.241Z,16.42
2023-01-20T03:07:27.821Z,16.20
2023-01-20T03:09:58.565Z,16.02
2023-01-20T03:12:35.199Z,16.02
2023-01-20T03:15:03.171Z,16.02
2023-01-20T03:17:30.659Z,15.90
2023-01-20T03:19:57.930Z,15.60
2023-01-20T03:22:25.315Z,14.77
2023-01-20T03:24:54.399Z,16.33
2023-01-20T03:27:21.633Z,16.67
2023-01-20T03:29:49.031Z,16.05
2023-01-20T03:32:16.494Z,15.82
2023-01-20T03:34:44.425Z,15.43
2023-01-20T03:37:13.141Z,15.38
2023-01-20T03:39:40.670Z,15.73
2023-01-20T03:42:11.304Z,14.90
2023-01-20T03:44:39.682Z,14.75
2023-01-20T03:47:31.310Z,15.65
2023-01-20T03:50:10.362Z,15.50
2023-01-20T03:52:58.094Z,14.35
2023-01-20T03:55:34.476Z,13.73
2023-01-20T03:58:07.900Z,15.63
2023-01-20T04:00:39.890Z,15.52
2023-01-20T04:03:13.033Z,15.93
2023-01-20T04:05:41.547Z,15.55
2023-01-20T04:08:10.648Z,15.70
2023-01-20T04:10:41.198Z,15.07
2023-01-20T04:13:09.011Z,16.00
2023-01-20T04:15:41.324Z,15.52
2023-01-20T04:18:15.250Z,15.68
2023-01-20T04:20:45.215Z,16.80
2023-01-20T04:23:24.901Z,15.43
2023-01-20T04:25:52.206Z,16.65
2023-01-20T04:28:19.401Z,15.32
2023-01-20T04:30:46.904Z,16.55
2023-01-20T04:33:14.206Z,16.33
2023-01-20T04:35:41.571Z,16.50
2023-01-20T04:38:08.943Z,16.55
2023-01-20T04:40:36.273Z,15.73
2023-01-20T04:43:03.973Z,16.67
2023-01-20T04:45:31.252Z,15.80
2023-01-20T04:47:58.652Z,15.95
2023-01-20T04:50:26.023Z,15.57
2023-01-20T04:52:56.337Z,15.27
2023-01-20T04:55:23.627Z,16.48
2023-01-20T04:57:50.928Z,16.77
2023-01-20T05:00:20.441Z,17.60
2023-01-20T05:02:47.820Z,15.95
2023-01-20T05:05:15.841Z,17.65
2023-01-20T05:07:43.369Z,19.27
2023-01-20T05:10:13.170Z,18.48
2023-01-20T05:12:41.428Z,17.98
2023-01-20T05:15:09.059Z,19.20
2023-01-20T05:17:36.536Z,18.60
2023-01-20T05:20:04.519Z,19.13
2023-01-20T05:22:33.457Z,18.02
2023-01-20T05:25:00.731Z,18.25
2023-01-20T05:27:27.950Z,17.60
2023-01-20T05:29:55.125Z,17.33
2023-01-20T05:32:22.445Z,18.48
2023-01-20T05:34:49.714Z,18.20
2023-01-20T05:37:18.341Z,17.73
2023-01-20T05:39:45.824Z,17.67
2023-01-20T05:42:13.202Z,18.23
2023-01-20T05:44:40.419Z,19.08
2023-01-20T05:47:08.065Z,18.05
2023-01-20T05:49:35.345Z,18.83
2023-01-20T05:52:02.641Z,17.30
2023-01-20T05:54:30.000Z,16.60
2023-01-20T05:56:57.117Z,18.63
2023-01-20T05:59:24.632Z,19.17
2023-01-20T06:01:51.823Z,18.52
2023-01-20T06:04:19.469Z,17.88
2023-01-20T06:06:46.738Z,18.77
2023-01-20T06:09:14.848Z,17.98
2023-01-20T06:11:42.235Z,18.92
2023-01-20T06:14:09.600Z,17.02
2023-01-20T06:16:36.949Z,17.88
2023-01-20T06:19:04.397Z,19.13
2023-01-20T06:21:31.723Z,17.95
2023-01-20T06:23:58.960Z,18.27
2023-01-20T06:26:26.212Z,17.45
2023-01-20T06:28:58.107Z,19.02
2023-01-20T06:31:25.668Z,18.80
2023-01-20T06:33:54.499Z,18.73
2023-01-20T06:36:21.953Z,18.60
2023-01-20T06:38:51.273Z,20.25
2023-01-20T06:41:19.619Z,18.17
2023-01-20T06:43:47.247Z,18.10
2023-01-20T06:46:16.129Z,18.63
2023-01-20T06:48:44.760Z,16.80
2023-01-20T06:51:15.171Z,18.20
2023-01-20T06:53:42.899Z,18.30
2023-01-20T06:56:12.089Z,18.98
2023-01-20T06:58:40.031Z,17.33
2023-01-20T07:01:11.065Z,17.60
2023-01-20T07:03:38.505Z,17.20
2023-01-20T07:06:15.028Z,16.25
2023-01-20T07:08:44.722Z,17.40
2023-01-20T07:11:11.975Z,17.20
2023-01-20T07:13:39.300Z,17.48
2023-01-20T07:16:08.902Z,15.75
2023-01-20T07:18:38.607Z,17.23
2023-01-20T07:21:06.459Z,17.45
2023-01-20T07:23:34.139Z,16.83
2023-01-20T07:26:04.404Z,17.13
2023-01-20T07:28:33.279Z,15.77
2023-01-20T07:31:10.842Z,17.27
2023-01-20T07:33:38.487Z,17.95
2023-01-20T07:36:07.144Z,17.27
2023-01-20T07:38:35.336Z,16.85
2023-01-20T07:41:06.760Z,16.23
2023-01-20T07:43:34.119Z,17.55
2023-01-20T07:46:03.911Z,16.35
2023-01-20T07:48:32.874Z,18.00
2023-01-20T07:51:03.289Z,17.50
2023-01-20T07:53:32.453Z,15.80
2023-01-20T07:56:02.560Z,16.90
2023-01-20T07:58:30.079Z,17.05
2023-01-20T08:00:57.553Z,17.15
2023-01-20T08:03:27.307Z,16.83
2023-01-20T08:05:54.694Z,17.27
2023-01-20T08:08:23.025Z,16.98
2023-01-20T08:10:54.962Z,18.05
2023-01-20T08:13:22.314Z,18.13
2023-01-20T08:15:49.582Z,17.27
2023-01-20T08:18:17.108Z,18.48
2023-01-20T08:20:44.629Z,16.73
2023-01-20T08:23:11.919Z,17.38
2023-01-20T08:25:39.134Z,18.55
2023-01-20T08:28:06.545Z,17.88
2023-01-20T08:30:34.138Z,16.67
2023-01-20T08:33:01.647Z,17.15
2023-01-20T08:35:29.009Z,16.55
2023-01-20T08:37:56.380Z,17.40
2023-01-20T08:40:23.768Z,17.15
2023-01-20T08:42:50.974Z,17.83
2023-01-20T08:45:18.228Z,17.50
2023-01-20T08:47:46.300Z,16.77
2023-01-20T08:50:16.567Z,18.75
2023-01-20T08:52:44.033Z,17.33
2023-01-20T08:55:12.108Z,17.27
2023-01-20T08:57:39.604Z,17.30
2023-01-20T09:00:09.395Z,17.17
2023-01-20T09:02:38.015Z,16.80
2023-01-20T09:05:05.831Z,17.52
2023-01-20T09:07:33.187Z,18.45
2023-01-20T09:10:00.448Z,18.45
2023-01-20T09:12:27.692Z,17.92
2023-01-20T09:14:54.861Z,17.80
2023-01-20T09:17:22.121Z,17.13
2023-01-20T09:19:49.556Z,17.88
2023-01-20T09:22:16.882Z,18.00
2023-01-20T09:24:44.158Z,17.23
2023-01-20T09:27:11.442Z,18.77
2023-01-20T09:29:38.658Z,17.52
2023-01-20T09:32:06.090Z,17.30
2023-01-20T09:34:34.498Z,17.52
2023-01-20T09:37:22.948Z,17.52
2023-01-20T09:40:10.371Z,18.08
2023-01-20T09:43:29.627Z,17.00
2023-01-20T09:46:10.680Z,17.50
2023-01-20T09:49:10.172Z,19.10
2023-01-20T09:52:09.610Z,18.38
2023-01-20T09:54:45.487Z,18.35
2023-01-20T09:57:14.280Z,18.67
2023-01-20T09:59:50.227Z,17.20
2023-01-20T10:02:24.113Z,18.38
2023-01-20T10:04:58.641Z,13.48
2023-01-20T10:09:57.668Z,17.50
2023-01-20T10:12:33.804Z,18.35
2023-01-20T10:15:07.613Z,18.42
2023-01-20T10:17:40.873Z,17.88
2023-01-20T10:20:14.817Z,17.17
2023-01-20T10:22:56.222Z,16.63
2023-01-20T10:25:38.880Z,17.35
2023-01-20T10:28:14.474Z,16.83
2023-01-20T10:30:43.252Z,16.52
2023-01-20T10:33:14.858Z,24.65
2023-01-20T10:35:47.733Z,16.95
2023-01-20T10:38:36.913Z,17.92
2023-01-20T10:41:16.713Z,16.75
2023-01-20T10:43:45.342Z,16.08
2023-01-20T10:46:52.926Z,16.85
2023-01-20T10:49:41.492Z,17.15
2023-01-20T10:52:15.739Z,16.98
2023-01-20T10:55:03.313Z,14.95
2023-01-20T10:57:30.933Z,16.40
2023-01-20T11:00:01.966Z,15.65
2023-01-20T11:02:35.195Z,15.77
2023-01-20T11:05:03.710Z,15.63
2023-01-20T11:07:33.803Z,14.70
2023-01-20T11:10:14.699Z,13.82
2023-01-20T11:12:44.665Z,14.75
2023-01-20T11:15:18.009Z,15.85
2023-01-20T11:17:46.061Z,16.60
2023-01-20T11:20:22.728Z,16.52
2023-01-20T11:22:50.916Z,16.50
2023-01-20T11:25:30.452Z,16.83
2023-01-20T11:27:58.891Z,17.63
2023-01-20T11:30:31.285Z,16.77
2023-01-20T11:33:21.498Z,16.30
2023-01-20T11:36:19.035Z,16.60
2023-01-20T11:38:49.080Z,16.90
2023-01-20T11:41:32.298Z,16.98
2023-01-20T11:44:01.345Z,18.20
2023-01-20T11:46:32.903Z,18.65
2023-01-20T11:49:19.514Z,19.50
2023-01-20T11:51:49.981Z,17.95
2023-01-20T11:54:23.394Z,17.52
2023-01-20T11:56:56.322Z,18.17
2023-01-20T11:59:30.572Z,16.58
2023-01-20T12:02:21.365Z,18.10
2023-01-20T12:05:13.081Z,18.83
2023-01-20T12:07:46.242Z,17.63
2023-01-20T12:10:34.591Z,17.88
2023-01-20T12:13:09.303Z,16.48
2023-01-20T12:15:43.945Z,16.23
2023-01-20T12:21:08.397Z,15.40
2023-01-20T12:23:51.082Z,15.75
2023-01-20T12:26:22.481Z,16.73
2023-01-20T12:29:05.312Z,14.70
2023-01-20T12:31:33.736Z,15.20
2023-01-20T12:34:06.558Z,15.68
2023-01-20T12:36:50.222Z,16.23
2023-01-20T12:39:40.963Z,17.20
2023-01-20T12:42:32.031Z,15.93
2023-01-20T12:45:15.698Z,15.35
2023-01-20T12:48:03.212Z,14.75
2023-01-20T12:50:58.294Z,15.90
2023-01-20T12:53:30.553Z,15.90
2023-01-20T12:56:34.039Z,16.55
2023-01-20T12:59:17.376Z,16.52
2023-01-20T13:02:01.071Z,15.77
2023-01-20T13:04:55.380Z,17.38
2023-01-20T13:07:23.335Z,12.03
2023-01-20T13:10:03.867Z,16.88
2023-01-20T13:12:43.298Z,16.65
2023-01-20T13:15:14.666Z,16.75
2023-01-20T13:17:57.926Z,15.45
2023-01-20T13:20:29.167Z,15.02
2023-01-20T13:22:58.840Z,15.05
2023-01-20T13:25:27.446Z,14.73
2023-01-20T13:27:55.778Z,15.15
2023-01-20T13:30:48.535Z,14.65
2023-01-20T13:33:29.706Z,13.93
2023-01-20T13:36:00.337Z,14.25
2023-01-20T13:38:33.352Z,12.30
2023-01-20T13:41:03.743Z,14.45
2023-01-20T13:43:32.267Z,24.17
2023-01-20T13:46:07.152Z,14.25
2023-01-20T13:48:36.706Z,12.57
2023-01-20T13:51:29.885Z,14.25
2023-01-20T13:54:25.779Z,13.05
2023-01-20T13:57:13.589Z,10.75
2023-01-20T13:59:40.957Z,10.18
2023-01-20T14:02:18.426Z,11.13
2023-01-20T14:04:46.950Z,10.00
2023-01-20T14:07:27.906Z,9.45
2023-01-20T14:09:58.443Z,10.07
2023-01-20T14:12:26.645Z,10.40
2023-01-20T14:14:54.732Z,10.13
2023-01-20T14:17:25.055Z,9.25
2023-01-20T14:19:55.129Z,9.50
2023-01-20T14:22:25.940Z,10.20
2023-01-20T14:24:57.798Z,8.68
2023-01-20T14:27:28.529Z,8.70
2023-01-20T14:30:00.653Z,9.43
2023-01-20T14:32:32.642Z,7.93
2023-01-20T14:35:01.957Z,8.93
2023-01-20T14:37:31.543Z,8.48
2023-01-20T14:40:08.563Z,8.10
2023-01-20T14:42:38.772Z,9.20
2023-01-20T14:45:20.078Z,8.55
2023-01-20T14:47:48.797Z,9.15
2023-01-20T14:50:18.898Z,9.50
2023-01-20T14:52:46.949Z,8.55
2023-01-20T14:55:35.951Z,9.15
2023-01-20T14:58:15.434Z,10.00
2023-01-20T15:00:45.487Z,9.32
2023-01-20T15:03:14.639Z,9.40
2023-01-20T15:06:03.863Z,9.32
2023-01-20T15:08:35.010Z,9.52
2023-01-20T15:11:10.314Z,9.18
2023-01-20T15:13:39.604Z,9.02
2023-01-20T15:16:24.331Z,8.85
2023-01-20T15:21:46.327Z,8.75
2023-01-20T15:24:18.199Z,6.90
2023-01-20T15:26:47.226Z,9.50
2023-01-20T15:29:31.715Z,8.85
2023-01-20T15:32:06.583Z,8.85
2023-01-20T15:34:34.517Z,8.10
2023-01-20T15:37:02.296Z,9.38
2023-01-20T15:39:31.055Z,7.82
2023-01-20T15:41:58.738Z,8.60
2023-01-20T15:44:27.262Z,8.88
2023-01-20T15:46:57.708Z,8.38
2023-01-20T15:49:25.729Z,8.40
2023-01-20T15:51:53.761Z,8.88
2023-01-20T15:54:21.447Z,8.35
2023-01-20T15:56:49.203Z,8.82
2023-01-20T15:59:20.378Z,9.32
2023-01-20T16:01:50.504Z,9.30
2023-01-20T16:04:18.681Z,9.07
2023-01-20T16:06:46.196Z,9.88
2023-01-20T16:09:21.551Z,9.70
2023-01-20T16:11:49.435Z,9.82
2023-01-20T16:14:16.742Z,9.88
2023-01-20T16:16:44.689Z,9.55
2023-01-20T16:19:15.378Z,9.82
2023-01-20T16:21:45.359Z,10.05
2023-01-20T16:24:14.007Z,11.00
2023-01-20T16:26:44.190Z,10.40
2023-01-20T16:29:11.599Z,10.73
2023-01-20T16:31:39.357Z,10.63
2023-01-20T16:34:08.162Z,10.38
2023-01-20T16:36:35.741Z,9.98
2023-01-20T16:39:03.164Z,9.15
2023-01-20T16:41:31.072Z,10.30
2023-01-20T16:43:59.104Z,9.82
2023-01-20T16:46:29.314Z,11.20
2023-01-20T16:49:02.181Z,15.55
2023-01-20T16:51:31.032Z,18.90
2023-01-20T16:53:59.214Z,16.25
2023-01-20T16:56:30.263Z,15.10
2023-01-20T16:59:01.618Z,15.73
2023-01-20T17:01:30.783Z,15.52
2023-01-20T17:03:59.846Z,14.77
2023-01-20T17:06:30.689Z,13.30
2023-01-20T17:09:00.910Z,13.45
2023-01-20T17:11:30.504Z,12.77
2023-01-20T17:13:58.897Z,13.43
2023-01-20T17:16:26.646Z,13.40
2023-01-20T17:18:55.674Z,13.35
2023-01-20T17:21:24.468Z,13.57
2023-01-20T17:23:56.190Z,12.38
2023-01-20T17:26:24.874Z,12.65
2023-01-20T17:29:03.339Z,12.02
2023-01-20T17:31:35.766Z,12.65
2023-01-20T17:34:05.317Z,12.60
2023-01-20T17:36:35.123Z,13.25
2023-01-20T17:39:04.225Z,12.95
2023-01-20T17:41:31.945Z,12.93
2023-01-20T17:43:59.158Z,13.07
2023-01-20T17:46:29.674Z,13.43
2023-01-20T17:48:58.580Z,13.10
2023-01-20T17:51:28.820Z,13.32
2023-01-20T17:53:58.072Z,14.43
2023-01-20T17:56:26.267Z,13.90
2023-01-20T17:58:54.278Z,14.43
2023-01-20T18:01:24.906Z,14.20
2023-01-20T18:03:54.594Z,14.70
2023-01-20T18:06:24.181Z,15.32
2023-01-20T18:08:52.802Z,15.60
2023-01-20T18:11:22.029Z,15.32
2023-01-20T18:13:52.438Z,16.60
2023-01-20T18:16:22.446Z,16.80
2023-01-20T18:18:50.749Z,17.20
2023-01-20T18:21:21.980Z,16.02
2023-01-20T18:23:50.337Z,15.60
2023-01-20T18:26:21.497Z,14.70
2023-01-20T18:28:49.636Z,14.13
2023-01-20T18:31:19.911Z,13.10
2023-01-20T18:33:52.455Z,13.18
2023-01-20T18:36:24.353Z,11.73
2023-01-20T18:38:53.532Z,10.40
2023-01-20T18:41:21.877Z,10.48
2023-01-20T18:43:49.752Z,10.18
2023-01-20T18:46:17.553Z,10.50
2023-01-20T18:48:46.750Z,52.15
2023-01-20T18:51:16.606Z,14.68
2023-01-20T18:53:45.947Z,11.75
2023-01-20T18:56:15.694Z,10.52
2023-01-20T18:58:47.295Z,12.27
2023-01-20T19:01:18.361Z,11.13
2023-01-20T19:03:47.163Z,12.43
2023-01-20T19:06:18.166Z,14.18
2023-01-20T19:08:48.475Z,12.65
2023-01-20T19:11:19.605Z,12.65
2023-01-20T19:13:50.111Z,12.32
2023-01-20T19:16:19.420Z,12.32
2023-01-20T19:18:53.003Z,13.00
2023-01-20T19:21:21.154Z,10.32
2023-01-20T19:23:51.704Z,13.43
2023-01-20T19:26:21.139Z,13.98
2023-01-20T19:28:55.818Z,13.45
2023-01-20T19:31:24.159Z,13.55
2023-01-20T19:33:52.531Z,12.95
2023-01-20T19:36:21.268Z,14.35
2023-01-20T19:38:49.180Z,15.40
2023-01-20T19:41:19.416Z,17.65
2023-01-20T19:43:47.710Z,17.85
2023-01-20T19:46:20.569Z,17.65
2023-01-20T19:48:48.933Z,16.42
2023-01-20T19:51:17.313Z,14.95
2023-01-20T19:53:45.432Z,14.23
2023-01-20T19:56:17.434Z,14.93
2023-01-20T19:58:46.873Z,14.05
2023-01-20T20:01:20.777Z,14.18
2023-01-20T20:03:49.728Z,13.77
2023-01-20T20:06:25.818Z,14.77
2023-01-20T20:08:59.475Z,15.43
2023-01-20T20:11:28.994Z,15.13
2023-01-20T20:13:57.856Z,14.98
2023-01-20T20:16:27.560Z,15.65
2023-01-20T20:18:56.261Z,14.77
2023-01-20T20:21:26.148Z,14.20
2023-01-20T20:23:57.087Z,14.13
2023-01-20T20:26:28.414Z,15.55
2023-01-20T20:28:56.138Z,14.10
2023-01-20T20:31:29.580Z,14.35
2023-01-20T20:33:59.697Z,14.13
2023-01-20T20:36:29.828Z,14.18
2023-01-20T20:38:59.212Z,14.05
2023-01-20T20:41:29.344Z,15.30
2023-01-20T20:43:58.488Z,16.88
2023-01-20T20:46:27.578Z,16.45
2023-01-20T20:48:59.694Z,16.63
2023-01-20T20:51:31.354Z,16.70
2023-01-20T20:54:01.680Z,16.23
2023-01-20T20:56:33.739Z,15.27
2023-01-20T20:59:03.456Z,15.35
2023-01-20T21:01:34.226Z,14.38
2023-01-20T21:04:03.725Z,15.25
2023-01-20T21:06:31.787Z,15.27
2023-01-20T21:09:00.460Z,18.70
2023-01-20T21:11:29.288Z,17.60
2023-01-20T21:13:57.220Z,19.15
2023-01-20T21:16:25.858Z,17.65
2023-01-20T21:18:56.438Z,16.23
2023-01-20T21:21:25.232Z,16.15
2023-01-20T21:23:55.133Z,17.63
2023-01-20T21:26:25.905Z,17.67
2023-01-20T21:28:55.123Z,16.45
2023-01-20T21:31:27.013Z,15.10
2023-01-20T21:33:58.638Z,15.48
2023-01-20T21:36:27.030Z,14.50
2023-01-20T21:38:55.468Z,14.60
2023-01-20T21:41:23.168Z,15.60
2023-01-20T21:44:11.090Z,14.43
2023-01-20T21:46:40.589Z,14.43
2023-01-20T21:49:29.263Z,14.40
2023-01-20T21:52:16.796Z,14.93
2023-01-20T21:54:45.755Z,14.38
2023-01-20T21:57:14.469Z,16.70
2023-01-20T21:59:42.523Z,15.65
2023-01-20T22:02:12.925Z,16.20
2023-01-20T22:04:41.121Z,15.10
2023-01-20T22:07:08.834Z,13.57
2023-01-20T22:09:36.120Z,14.85
2023-01-20T22:12:04.250Z,13.05
2023-01-20T22:14:33.506Z,13.60
2023-01-20T22:17:01.329Z,13.30
2023-01-20T22:19:29.298Z,12.88
2023-01-20T22:21:57.053Z,12.70
2023-01-20T22:24:24.799Z,12.25
2023-01-20T22:26:52.384Z,12.98
2023-01-20T22:29:20.997Z,12.45
2023-01-20T22:31:52.642Z,13.05
2023-01-20T22:34:21.010Z,12.75
2023-01-20T22:36:48.762Z,13.02
2023-01-20T22:39:16.573Z,14.23
2023-01-20T22:41:44.270Z,14.45
2023-01-20T22:44:11.933Z,14.35
2023-01-20T22:46:39.812Z,13.23
2023-01-20T22:49:07.720Z,12.70
2023-01-20T22:51:35.648Z,12.68
2023-01-20T22:54:03.274Z,12.75
2023-01-20T22:56:32.500Z,12.30
2023-01-20T22:59:00.943Z,13.32
2023-01-20T23:01:33.114Z,13.52
2023-01-20T23:04:02.881Z,13.00
2023-01-20T23:06:34.944Z,12.40
2023-01-20T23:09:07.208Z,11.45
2023-01-20T23:11:36.538Z,11.45
2023-01-20T23:14:04.635Z,10.95
2023-01-20T23:16:32.065Z,11.82
2023-01-20T23:18:59.794Z,11.43
2023-01-20T23:21:27.377Z,10.27
2023-01-20T23:23:55.196Z,10.45
2023-01-20T23:26:25.541Z,10.18
2023-01-20T23:28:54.555Z,9.48
2023-01-20T23:31:24.331Z,10.13
2023-01-20T23:33:53.613Z,10.25
2023-01-20T23:36:24.715Z,9.82
2023-01-20T23:38:55.367Z,10.23
2023-01-20T23:41:23.250Z,10.20
2023-01-20T23:43:50.943Z,9.60
2023-01-20T23:46:18.302Z,10.95
2023-01-20T23:48:47.099Z,9.52
2023-01-20T23:51:15.561Z,8.95
2023-01-20T23:53:43.264Z,9.77
2023-01-20T23:56:15.279Z,10.15
2023-01-20T23:58:43.549Z,9.73
